McClellan, California
Current Conditions -  °F | °C
As of 4:45 PM on Tuesday 21 Oct 2014 (Local Time) from KMHR Reporting Station
Scattered Clouds Scattered Clouds  
Wind Chill: 72°   Ceiling: Unl
Heat Index: 72°   Visibility: 10mi
Dew Point: 39°   Wind: 12mph
Humidity: 31%   Direction: 350°N
Pressure: 30"   Gusts: NA
Location:  38.6632°N, 121.383°W
Report Text: KMHR 212345Z 35010KT 10SM SCT180 22/04 A3000
Loading
Personal Weather Stations






























Interactive Weather Map
Tropical Storm Tracking
New forecast layout! Learn more

10-Day Weather Forecast

Advertisements
Track Severe Weather on mobile